Baotou, China
Current Conditions -  °F | °C
As of 3:00 PM on Saturday 25 Oct 2014 (Local Time) from ZBHH Reporting Station
Clear Clear  
Wind Chill: 68°   Ceiling: Unl
Heat Index: 68°   Visibility: 4mi
Dew Point: 36°   Wind: 7mph
Humidity: 30%   Direction: 220°SW
Pressure: 29.94"   Gusts: NA
Location:  40.4°N, 109.59°E
Report Text: ZBHH 250700Z 22003MPS 190V260 6000 NSC 20/02 Q1014 NOSIG
Loading
Personal Weather Stations






























Interactive Weather Map
Tropical Storm Tracking
New forecast layout! Learn more

10-Day Weather Forecast

Advertisements
Track Severe Weather on mobile